createdAt,value
2023-05-25T00:00:53.854Z,0
2023-05-25T00:02:10.044Z,0
2023-05-25T00:03:14.000Z,0
2023-05-25T00:04:30.000Z,0
2023-05-25T00:05:58.631Z,0
2023-05-25T00:07:14.583Z,0
2023-05-25T00:08:31.029Z,0
2023-05-25T00:09:47.220Z,0
2023-05-25T00:10:51.000Z,0
2023-05-25T00:12:07.000Z,0
2023-05-25T00:13:22.000Z,0
2023-05-25T00:14:51.020Z,0
2023-05-25T00:15:55.000Z,0
2023-05-25T00:17:11.000Z,0
2023-05-25T00:18:39.607Z,0
2023-05-25T00:19:55.557Z,0
2023-05-25T00:21:11.997Z,0
2023-05-25T00:22:16.000Z,0
2023-05-25T00:23:44.386Z,0
2023-05-25T00:25:00.586Z,0
2023-05-25T00:26:04.000Z,0
2023-05-25T00:27:32.983Z,0
2023-05-25T00:28:37.000Z,0
2023-05-25T00:29:52.000Z,0
2023-05-25T00:31:20.336Z,0
2023-05-25T00:32:24.000Z,0
2023-05-25T00:33:40.000Z,0
2023-05-25T00:34:57.000Z,0
2023-05-25T00:36:25.365Z,0
2023-05-25T00:37:29.000Z,0
2023-05-25T00:38:45.000Z,0
2023-05-25T00:40:13.958Z,0
2023-05-25T00:41:18.000Z,0
2023-05-25T00:42:34.000Z,0
2023-05-25T00:44:02.295Z,0
2023-05-25T00:45:06.000Z,0
2023-05-25T00:46:33.950Z,0
2023-05-25T00:47:38.000Z,0
2023-05-25T00:49:06.344Z,0
2023-05-25T00:50:10.000Z,0
2023-05-25T00:51:26.000Z,0
2023-05-25T00:52:42.000Z,0
2023-05-25T00:54:11.125Z,0
2023-05-25T00:55:15.000Z,0
2023-05-25T00:56:43.513Z,0
2023-05-25T00:57:59.466Z,0
2023-05-25T00:59:15.902Z,0
2023-05-25T01:00:31.858Z,0
2023-05-25T01:01:48.301Z,0
2023-05-25T01:03:03.266Z,0
2023-05-25T01:04:19.712Z,0
2023-05-25T01:05:35.899Z,0
2023-05-25T01:06:39.000Z,0
2023-05-25T01:07:56.000Z,0
2023-05-25T01:09:12.000Z,0
2023-05-25T01:10:28.000Z,0
2023-05-25T01:11:56.640Z,0
2023-05-25T01:13:13.086Z,0
2023-05-25T01:14:29.031Z,0
2023-05-25T01:15:45.472Z,0
2023-05-25T01:16:49.000Z,0
2023-05-25T01:18:17.859Z,0
2023-05-25T01:19:33.071Z,0
2023-05-25T01:20:37.000Z,0
2023-05-25T01:21:53.000Z,0
2023-05-25T01:23:09.000Z,0
2023-05-25T01:24:37.861Z,0
2023-05-25T01:25:41.000Z,0
2023-05-25T01:26:57.000Z,0
2023-05-25T01:28:25.226Z,0
2023-05-25T01:29:41.423Z,0
2023-05-25T01:30:57.619Z,0
2023-05-25T01:32:01.000Z,0
2023-05-25T01:33:30.010Z,0
2023-05-25T01:34:46.465Z,0
2023-05-25T01:35:50.000Z,0
2023-05-25T01:37:06.000Z,0
2023-05-25T01:38:22.000Z,0
2023-05-25T01:39:50.991Z,0
2023-05-25T01:41:07.186Z,0
2023-05-25T01:42:11.000Z,0
2023-05-25T01:43:26.000Z,0
2023-05-25T01:44:55.031Z,0
2023-05-25T01:46:10.985Z,0
2023-05-25T01:47:27.436Z,0
2023-05-25T01:48:31.000Z,0
2023-05-25T01:49:59.819Z,0
2023-05-25T01:51:16.026Z,0
2023-05-25T01:52:32.207Z,0
2023-05-25T01:53:48.406Z,0
2023-05-25T01:55:04.356Z,0
2023-05-25T01:56:20.794Z,0
2023-05-25T01:57:36.991Z,0
2023-05-25T01:58:41.000Z,0
2023-05-25T02:00:08.156Z,0
2023-05-25T02:01:12.000Z,0
2023-05-25T02:02:28.000Z,0
2023-05-25T02:03:44.000Z,0
2023-05-25T02:05:13.180Z,0
2023-05-25T02:06:29.379Z,0
2023-05-25T02:07:33.000Z,0
2023-05-25T02:09:01.529Z,0
2023-05-25T02:10:17.965Z,0
2023-05-25T02:11:22.000Z,0
2023-05-25T02:12:38.000Z,0
2023-05-25T02:14:06.315Z,0
2023-05-25T02:15:10.000Z,0
2023-05-25T02:16:25.000Z,0
2023-05-25T02:17:42.000Z,0
2023-05-25T02:19:10.356Z,0
2023-05-25T02:20:14.000Z,0
2023-05-25T02:21:42.757Z,0
2023-05-25T02:22:46.000Z,0
2023-05-25T02:24:02.000Z,0
2023-05-25T02:25:31.345Z,0
2023-05-25T02:26:35.000Z,0
2023-05-25T02:28:03.731Z,0
2023-05-25T02:29:07.000Z,0
2023-05-25T02:30:36.126Z,0
2023-05-25T02:31:40.000Z,0
2023-05-25T02:33:07.530Z,0
2023-05-25T02:34:23.724Z,0
2023-05-25T02:35:39.925Z,0
2023-05-25T02:36:56.121Z,0
2023-05-25T02:38:12.320Z,0
2023-05-25T02:39:28.267Z,0
2023-05-25T02:40:44.711Z,0
2023-05-25T02:41:48.000Z,0
2023-05-25T02:43:17.095Z,0
2023-05-25T02:44:21.000Z,0
2023-05-25T02:45:49.495Z,0
2023-05-25T02:47:05.692Z,0
2023-05-25T02:48:21.919Z,0
2023-05-25T02:49:36.853Z,0
2023-05-25T02:50:53.049Z,0
2023-05-25T02:51:57.000Z,0
2023-05-25T02:53:13.000Z,0
2023-05-25T02:54:29.000Z,4
2023-05-25T02:55:45.000Z,4
2023-05-25T02:57:14.275Z,0
2023-05-25T02:58:30.226Z,4
2023-05-25T02:59:46.422Z,4
2023-05-25T03:01:02.864Z,4
2023-05-25T03:02:06.000Z,4
2023-05-25T03:03:35.259Z,4
2023-05-25T03:04:39.000Z,4
2023-05-25T03:06:06.420Z,4
2023-05-25T03:07:22.615Z,12
2023-05-25T03:08:39.060Z,8
2023-05-25T03:09:55.253Z,12
2023-05-25T03:10:59.000Z,16
2023-05-25T03:12:27.401Z,16
2023-05-25T03:13:43.838Z,20
2023-05-25T03:14:47.000Z,24
2023-05-25T03:16:16.231Z,28
2023-05-25T03:17:20.000Z,32
2023-05-25T03:18:48.624Z,40
2023-05-25T03:19:52.000Z,44
2023-05-25T03:21:20.773Z,48
2023-05-25T03:22:36.229Z,56
2023-05-25T03:23:40.000Z,64
2023-05-25T03:24:56.000Z,72
2023-05-25T03:26:24.812Z,76
2023-05-25T03:27:28.000Z,88
2023-05-25T03:28:56.965Z,100
2023-05-25T03:30:13.404Z,108
2023-05-25T03:31:29.596Z,120
2023-05-25T03:32:33.000Z,128
2023-05-25T03:33:49.000Z,144
2023-05-25T03:35:18.186Z,160
2023-05-25T03:36:34.382Z,176
2023-05-25T03:37:50.336Z,192
2023-05-25T03:38:53.000Z,208
2023-05-25T03:40:09.000Z,228
2023-05-25T03:41:38.189Z,248
2023-05-25T03:42:54.378Z,272
2023-05-25T03:44:10.334Z,292
2023-05-25T03:45:14.000Z,312
2023-05-25T03:46:42.725Z,332
2023-05-25T03:47:46.000Z,360
2023-05-25T03:49:15.118Z,384
2023-05-25T03:50:19.000Z,408
2023-05-25T03:51:47.511Z,436
2023-05-25T03:52:51.000Z,464
2023-05-25T03:54:07.000Z,492
2023-05-25T03:55:36.341Z,520
2023-05-25T03:56:39.000Z,544
2023-05-25T03:57:55.000Z,576
2023-05-25T03:59:23.945Z,608
2023-05-25T04:00:27.000Z,640
2023-05-25T04:01:44.000Z,668
2023-05-25T04:03:00.000Z,700
2023-05-25T04:04:16.000Z,728
2023-05-25T04:05:44.684Z,760
2023-05-25T04:07:01.128Z,792
2023-05-25T04:08:05.000Z,828
2023-05-25T04:09:33.272Z,868
2023-05-25T04:10:37.000Z,900
2023-05-25T04:12:05.910Z,928
2023-05-25T04:13:21.129Z,968
2023-05-25T04:14:37.319Z,1008
2023-05-25T04:15:22.000Z,1364
2023-05-25T04:15:53.270Z,1044
2023-05-25T04:17:09.713Z,1076
2023-05-25T04:18:13.000Z,1116
2023-05-25T04:19:29.000Z,1256
2023-05-25T04:20:46.000Z,1384
2023-05-25T04:23:18.000Z,1340
2023-05-25T04:24:34.000Z,1372
2023-05-25T04:25:50.000Z,1432
2023-05-25T04:27:19.293Z,1388
2023-05-25T04:28:35.476Z,1380
2023-05-25T04:29:38.000Z,1416
2023-05-25T04:30:54.000Z,1460
2023-05-25T04:32:22.836Z,1468
2023-05-25T04:33:39.031Z,1488
2023-05-25T04:34:55.227Z,1520
2023-05-25T04:36:11.671Z,1548
2023-05-25T04:37:15.000Z,1580
2023-05-25T04:38:31.000Z,1616
2023-05-25T04:39:48.000Z,1648
2023-05-25T04:41:16.456Z,1688
2023-05-25T04:42:20.000Z,1712
2023-05-25T04:43:48.601Z,1740
2023-05-25T04:45:05.040Z,1776
2023-05-25T04:46:20.009Z,1804
2023-05-25T04:47:24.000Z,1836
2023-05-25T04:48:52.646Z,1872
2023-05-25T04:49:56.000Z,1900
2023-05-25T04:51:12.000Z,1924
2023-05-25T04:52:41.233Z,1952
2023-05-25T04:53:57.184Z,1976
2023-05-25T04:55:13.624Z,2012
2023-05-25T04:56:17.000Z,2048
2023-05-25T04:57:33.000Z,2084
2023-05-25T04:58:50.000Z,2128
2023-05-25T05:00:18.166Z,2164
2023-05-25T05:01:34.361Z,2208
2023-05-25T05:02:49.574Z,2272
2023-05-25T05:03:53.000Z,2368
2023-05-25T05:05:10.000Z,2536
2023-05-25T05:06:38.408Z,2744
2023-05-25T05:07:42.000Z,2760
2023-05-25T05:08:58.000Z,3024
2023-05-25T05:10:26.750Z,3032
2023-05-25T05:11:30.000Z,3256
2023-05-25T05:12:47.000Z,3368
2023-05-25T05:14:15.591Z,3720
2023-05-25T05:15:31.774Z,3796
2023-05-25T05:16:47.727Z,4152
2023-05-25T05:17:51.000Z,4080
2023-05-25T05:19:19.130Z,4100
2023-05-25T05:20:35.570Z,4488
2023-05-25T05:21:51.518Z,4788
2023-05-25T05:23:07.712Z,4848
2023-05-25T05:24:11.000Z,4448
2023-05-25T05:25:40.099Z,5076
2023-05-25T05:26:44.000Z,4816
2023-05-25T05:28:00.000Z,5796
2023-05-25T05:29:28.681Z,6856
2023-05-25T05:30:32.000Z,7216
2023-05-25T05:31:49.000Z,6956
2023-05-25T05:33:17.263Z,7360
2023-05-25T05:34:21.000Z,6916
2023-05-25T05:35:36.000Z,4892
2023-05-25T05:36:52.000Z,4584
2023-05-25T05:38:21.054Z,4224
2023-05-25T05:39:25.000Z,3804
2023-05-25T05:40:41.000Z,4532
2023-05-25T05:41:56.000Z,5632
2023-05-25T05:43:12.000Z,5572
2023-05-25T05:44:41.045Z,5536
2023-05-25T05:45:45.000Z,6572
2023-05-25T05:47:01.000Z,6400
2023-05-25T05:48:17.000Z,4676
2023-05-25T05:49:33.000Z,4524
2023-05-25T05:50:50.000Z,6324
2023-05-25T05:52:06.000Z,6252
2023-05-25T05:53:22.000Z,6552
2023-05-25T05:54:50.842Z,5784
2023-05-25T05:56:06.788Z,5216
2023-05-25T05:57:22.982Z,6960
2023-05-25T05:58:26.000Z,9868
2023-05-25T05:59:54.385Z,10872
2023-05-25T06:00:58.000Z,15712
2023-05-25T06:02:14.000Z,19456
2023-05-25T06:03:31.000Z,16704
2023-05-25T06:04:47.000Z,22592
2023-05-25T06:06:03.000Z,27456
2023-05-25T06:07:19.000Z,29024
2023-05-25T06:08:35.000Z,28672
2023-05-25T06:10:04.180Z,30720
2023-05-25T06:11:08.000Z,32800
2023-05-25T06:12:24.000Z,31968
2023-05-25T06:13:40.000Z,32864
2023-05-25T06:15:08.709Z,32864
2023-05-25T06:16:23.919Z,31328
2023-05-25T06:17:40.112Z,32896
2023-05-25T06:18:56.549Z,33056
2023-05-25T06:20:00.000Z,33888
2023-05-25T06:21:16.000Z,33184
2023-05-25T06:22:32.000Z,34112
2023-05-25T06:23:49.000Z,34752
2023-05-25T06:25:17.274Z,34656
2023-05-25T06:26:33.717Z,35584
2023-05-25T06:27:37.000Z,36512
2023-05-25T06:28:53.000Z,37504
2023-05-25T06:30:22.050Z,39584
2023-05-25T06:31:38.487Z,40576
2023-05-25T06:32:53.452Z,42848
2023-05-25T06:33:57.000Z,42080
2023-05-25T06:35:13.000Z,42688
2023-05-25T06:36:42.034Z,39072
2023-05-25T06:37:46.000Z,28544
2023-05-25T06:39:02.000Z,25920
2023-05-25T06:40:18.000Z,24576
2023-05-25T06:41:47.060Z,23552
2023-05-25T06:42:51.000Z,25440
2023-05-25T06:44:19.197Z,26880
2023-05-25T06:45:35.391Z,25568
2023-05-25T06:46:51.584Z,28960
2023-05-25T06:47:55.000Z,23168
2023-05-25T06:49:11.000Z,9304
2023-05-25T06:50:39.183Z,5372
2023-05-25T06:51:55.376Z,5088
2023-05-25T06:53:11.570Z,4968
2023-05-25T06:54:27.764Z,4780
2023-05-25T06:55:31.000Z,4616
2023-05-25T06:57:00.152Z,4512
2023-05-25T06:58:16.599Z,4448
2023-05-25T06:59:32.785Z,4428
2023-05-25T07:00:48.734Z,4416
2023-05-25T07:02:04.927Z,4380
2023-05-25T07:03:09.000Z,4316
2023-05-25T07:04:37.556Z,4264
2023-05-25T07:05:40.000Z,4240
2023-05-25T07:06:56.000Z,4232
2023-05-25T07:08:12.000Z,4196
2023-05-25T07:09:41.105Z,4152
2023-05-25T07:10:57.548Z,4116
2023-05-25T07:12:01.000Z,4104
2023-05-25T07:13:17.000Z,4116
2023-05-25T07:14:33.000Z,4148
2023-05-25T07:16:02.073Z,4164
2023-05-25T07:17:18.516Z,4168
2023-05-25T07:18:22.000Z,4160
2023-05-25T07:19:38.000Z,4164
2023-05-25T07:20:54.000Z,4140
2023-05-25T07:22:10.000Z,4112
2023-05-25T07:23:26.000Z,4116
2023-05-25T07:24:54.445Z,4164
2023-05-25T07:25:58.000Z,4200
2023-05-25T07:27:14.000Z,4152
2023-05-25T07:28:31.000Z,4100
2023-05-25T07:29:59.463Z,4084
2023-05-25T07:31:03.000Z,4108
2023-05-25T07:32:19.000Z,4128
2023-05-25T07:33:47.802Z,4152
2023-05-25T07:35:03.995Z,4100
2023-05-25T07:36:08.000Z,4044
2023-05-25T07:37:36.627Z,3996
2023-05-25T07:38:39.000Z,3996
2023-05-25T07:40:08.047Z,3988
2023-05-25T07:41:11.000Z,3944
2023-05-25T07:42:28.000Z,3900
2023-05-25T07:43:56.367Z,3868
2023-05-25T07:45:12.818Z,3848
2023-05-25T07:46:16.000Z,3856
2023-05-25T07:47:32.000Z,3880
2023-05-25T07:49:01.141Z,3852
2023-05-25T07:50:17.576Z,3808
2023-05-25T07:51:33.528Z,3772
2023-05-25T07:52:49.971Z,3752
2023-05-25T07:54:05.916Z,3760
2023-05-25T07:55:22.109Z,3748
2023-05-25T07:56:25.000Z,3756
2023-05-25T07:57:41.000Z,3792
2023-05-25T07:59:09.706Z,3828
2023-05-25T08:00:13.000Z,3872
2023-05-25T08:01:30.000Z,3932
2023-05-25T08:02:58.287Z,3944
2023-05-25T08:04:02.000Z,3948
2023-05-25T08:05:30.675Z,3948
2023-05-25T08:06:34.000Z,3936
2023-05-25T08:07:31.000Z,3940
2023-05-25T08:07:51.000Z,3948
2023-05-25T08:09:07.000Z,3984
2023-05-25T08:10:35.702Z,4004
2023-05-25T08:11:51.643Z,3940
2023-05-25T08:12:54.000Z,3940
2023-05-25T08:15:27.000Z,3888
2023-05-25T08:16:43.000Z,3844
2023-05-25T08:18:11.874Z,3848
2023-05-25T08:19:27.821Z,3912
2023-05-25T08:20:32.000Z,4024
2023-05-25T08:21:48.000Z,4096
2023-05-25T08:23:16.402Z,4096
2023-05-25T08:24:32.595Z,4072
2023-05-25T08:25:48.789Z,3984
2023-05-25T08:27:05.226Z,3860
2023-05-25T08:28:09.000Z,3780
2023-05-25T08:29:24.000Z,3712
2023-05-25T08:30:40.000Z,3652
2023-05-25T08:31:56.000Z,3616
2023-05-25T08:33:24.967Z,3640
2023-05-25T08:34:29.000Z,3696
2023-05-25T08:35:57.354Z,3716
2023-05-25T08:37:13.548Z,3724
2023-05-25T08:38:17.000Z,3676
2023-05-25T08:39:33.000Z,3604
2023-05-25T08:40:50.000Z,3580
2023-05-25T08:42:18.323Z,3612
2023-05-25T08:43:22.000Z,3612
2023-05-25T08:44:38.000Z,3676
2023-05-25T08:46:06.164Z,4232
2023-05-25T08:47:22.114Z,4340
2023-05-25T08:48:38.549Z,3940
2023-05-25T08:49:42.000Z,3916
2023-05-25T08:51:10.695Z,4872
2023-05-25T08:52:14.000Z,4636
2023-05-25T08:53:31.000Z,4200
2023-05-25T08:54:47.000Z,4792
2023-05-25T08:56:15.718Z,4384
2023-05-25T08:57:31.663Z,3904
2023-05-25T08:58:35.000Z,3752
2023-05-25T08:59:52.000Z,3740
2023-05-25T09:01:08.000Z,3744
2023-05-25T09:02:23.000Z,3744
2023-05-25T09:03:21.000Z,3824
2023-05-25T09:03:39.000Z,3748
2023-05-25T09:05:07.841Z,3812
2023-05-25T09:06:12.000Z,3772
2023-05-25T09:07:40.228Z,3688
2023-05-25T09:08:44.000Z,3728
2023-05-25T09:11:28.809Z,3860
2023-05-25T09:12:45.003Z,3820
2023-05-25T09:14:01.197Z,3848
2023-05-25T09:15:17.391Z,3844
2023-05-25T09:16:21.000Z,3880
2023-05-25T09:17:49.778Z,3968
2023-05-25T09:19:04.988Z,4004
2023-05-25T09:20:21.181Z,4108
2023-05-25T09:21:25.000Z,4252
2023-05-25T09:22:41.000Z,4404
2023-05-25T09:24:09.762Z,4512
2023-05-25T09:25:25.956Z,4824
2023-05-25T09:26:42.149Z,6436
2023-05-25T09:27:46.000Z,8020
2023-05-25T09:29:14.784Z,10732
2023-05-25T09:30:30.972Z,10628
2023-05-25T09:31:46.923Z,11032
2023-05-25T09:32:51.000Z,11696
2023-05-25T09:34:19.311Z,11580
2023-05-25T09:35:34.520Z,12844
2023-05-25T09:36:50.961Z,12928
2023-05-25T09:37:54.000Z,11044
2023-05-25T09:39:23.101Z,8396
2023-05-25T09:40:27.000Z,8056
2023-05-25T09:41:55.488Z,6280
2023-05-25T09:43:41.364Z,6036
2023-05-25T09:44:28.120Z,6176
2023-05-25T09:45:44.070Z,7280
2023-05-25T09:46:48.000Z,7364
2023-05-25T09:48:16.458Z,6880
2023-05-25T09:49:32.898Z,7920
2023-05-25T09:50:36.000Z,11440
2023-05-25T09:51:52.000Z,10476
2023-05-25T09:53:08.000Z,11184
2023-05-25T09:54:24.000Z,12324
2023-05-25T09:55:52.880Z,12920
2023-05-25T09:56:55.000Z,13488
2023-05-25T09:58:11.000Z,14068
2023-05-25T09:59:28.000Z,12168
2023-05-25T10:00:25.000Z,6716
2023-05-25T10:00:56.679Z,10860
2023-05-25T10:02:00.000Z,9772
2023-05-25T10:03:16.000Z,8348
2023-05-25T10:04:45.013Z,7148
2023-05-25T10:05:49.000Z,6980
2023-05-25T10:08:33.846Z,5896
2023-05-25T10:09:37.000Z,5940
2023-05-25T10:11:05.982Z,5908
2023-05-25T10:12:10.000Z,5708
2023-05-25T10:13:26.000Z,6364
2023-05-25T10:14:53.580Z,6204
2023-05-25T10:15:57.000Z,6780
2023-05-25T10:17:13.000Z,9016
2023-05-25T10:18:30.000Z,11384
2023-05-25T10:19:58.354Z,13224
2023-05-25T10:21:14.548Z,10972
2023-05-25T10:22:30.985Z,8844
2023-05-25T10:23:34.000Z,7488
2023-05-25T10:25:03.374Z,5736
2023-05-25T10:26:07.000Z,4896
2023-05-25T10:27:23.000Z,5772
2023-05-25T10:28:39.000Z,8048
2023-05-25T10:30:07.905Z,10208
2023-05-25T10:31:23.372Z,8924
2023-05-25T10:32:27.000Z,8908
2023-05-25T10:33:55.746Z,8936
2023-05-25T10:35:11.946Z,10640
2023-05-25T10:36:27.891Z,8976
2023-05-25T10:37:44.330Z,8760
2023-05-25T10:38:48.000Z,7104
2023-05-25T10:40:04.000Z,5420
2023-05-25T10:41:32.916Z,6380
2023-05-25T10:42:36.000Z,8048
2023-05-25T10:43:52.000Z,7828
2023-05-25T10:45:09.000Z,7804
2023-05-25T10:46:25.000Z,6372
2023-05-25T10:47:40.000Z,5916
2023-05-25T10:48:56.000Z,6144
2023-05-25T10:50:25.041Z,7660
2023-05-25T10:51:41.235Z,8328
2023-05-25T10:52:45.000Z,10244
2023-05-25T10:54:01.000Z,12548
2023-05-25T10:55:17.000Z,12288
2023-05-25T10:56:33.000Z,11320
2023-05-25T10:58:02.202Z,9796
2023-05-25T10:59:06.000Z,8668
2023-05-25T11:00:34.589Z,7756
2023-05-25T11:01:38.000Z,7788
2023-05-25T11:02:54.000Z,6748
2023-05-25T11:04:22.186Z,5488
2023-05-25T11:05:38.380Z,5852
2023-05-25T11:06:42.000Z,7288
2023-05-25T11:08:10.768Z,9796
2023-05-25T11:09:26.962Z,10176
2023-05-25T11:10:31.000Z,12408
2023-05-25T11:11:47.000Z,11372
2023-05-25T11:13:15.814Z,10692
2023-05-25T11:14:19.000Z,10164
2023-05-25T11:15:35.000Z,10540
2023-05-25T11:17:04.379Z,10308
2023-05-25T11:18:08.000Z,9560
2023-05-25T11:19:24.000Z,11188
2023-05-25T11:20:39.000Z,9212
2023-05-25T11:21:55.000Z,6864
2023-05-25T11:23:24.356Z,4624
2023-05-25T11:24:40.304Z,5476
2023-05-25T11:25:56.497Z,7172
2023-05-25T11:27:12.692Z,7628
2023-05-25T11:28:16.000Z,8840
2023-05-25T11:29:33.000Z,11896
2023-05-25T11:31:01.516Z,12416
2023-05-25T11:32:05.000Z,9996
2023-05-25T11:33:21.000Z,8620
2023-05-25T11:34:37.000Z,7872
2023-05-25T11:36:06.047Z,8144
2023-05-25T11:37:21.257Z,9080
2023-05-25T11:38:25.000Z,10132
2023-05-25T11:39:41.000Z,10404
2023-05-25T11:40:57.000Z,9184
2023-05-25T11:42:26.285Z,7620
2023-05-25T11:43:42.225Z,6516
2023-05-25T11:44:46.000Z,7200
2023-05-25T11:46:14.613Z,8472
2023-05-25T11:47:18.000Z,8240
2023-05-25T11:48:47.001Z,8296
2023-05-25T11:50:03.195Z,9164
2023-05-25T11:51:19.389Z,7400
2023-05-25T11:52:35.843Z,6388
2023-05-25T11:53:38.000Z,5504
2023-05-25T11:55:06.986Z,4740
2023-05-25T11:56:23.180Z,5156
2023-05-25T11:57:27.000Z,6200
2023-05-25T11:58:43.000Z,6700
2023-05-25T11:59:59.000Z,6228
2023-05-25T12:01:27.955Z,7756
2023-05-25T12:02:44.149Z,10132
2023-05-25T12:04:00.584Z,11712
2023-05-25T12:05:16.789Z,11328
2023-05-25T12:06:20.000Z,10208
2023-05-25T12:07:36.000Z,9456
2023-05-25T12:09:05.364Z,8996
2023-05-25T12:10:08.000Z,8644
2023-05-25T12:11:24.000Z,7084
2023-05-25T12:12:40.000Z,5624
2023-05-25T12:13:56.000Z,7012
2023-05-25T12:15:25.350Z,7692
2023-05-25T12:16:41.298Z,6280
2023-05-25T12:17:57.492Z,5928
2023-05-25T12:19:01.000Z,4352
2023-05-25T12:20:17.000Z,4180
2023-05-25T12:21:46.074Z,4852
2023-05-25T12:23:02.268Z,5324
2023-05-25T12:24:18.462Z,6192
2023-05-25T12:25:34.656Z,7168
2023-05-25T12:26:37.000Z,6412
2023-05-25T12:28:06.059Z,7620
2023-05-25T12:29:22.499Z,11340
2023-05-25T12:30:26.000Z,12260
2023-05-25T12:31:42.000Z,10876
2023-05-25T12:33:10.835Z,8504
2023-05-25T12:34:14.000Z,6848
2023-05-25T12:35:43.488Z,5964
2023-05-25T12:36:47.000Z,5392
2023-05-25T12:38:03.000Z,5004
2023-05-25T12:39:32.047Z,5156
2023-05-25T12:40:48.241Z,5772
2023-05-25T12:41:52.000Z,6228
2023-05-25T12:43:07.000Z,6884
2023-05-25T12:44:23.000Z,7084
2023-05-25T12:45:39.000Z,7144
2023-05-25T12:46:55.000Z,7268
2023-05-25T12:48:12.000Z,7864
2023-05-25T12:49:28.000Z,7792
2023-05-25T12:50:44.000Z,6940
2023-05-25T12:52:13.005Z,5992
2023-05-25T12:53:29.194Z,5608
2023-05-25T12:54:33.000Z,6424
2023-05-25T12:55:49.000Z,5588
2023-05-25T12:57:17.785Z,4628
2023-05-25T12:58:33.729Z,4584
2023-05-25T12:59:36.000Z,4676
2023-05-25T13:00:53.000Z,4388
2023-05-25T13:02:09.000Z,4260
2023-05-25T13:03:37.520Z,4260
2023-05-25T13:04:53.965Z,4296
2023-05-25T13:05:57.000Z,4376
2023-05-25T13:07:26.101Z,4408
2023-05-25T13:08:42.295Z,4720
2023-05-25T13:09:58.489Z,5144
2023-05-25T13:11:14.682Z,4776
2023-05-25T13:12:18.000Z,4408
2023-05-25T13:13:47.314Z,4584
2023-05-25T13:15:03.263Z,4740
2023-05-25T13:16:06.000Z,4392
2023-05-25T13:17:34.668Z,4308
2023-05-25T13:18:38.000Z,4544
2023-05-25T13:19:54.000Z,5380
2023-05-25T13:21:23.249Z,4836
2023-05-25T13:22:39.716Z,4404
2023-05-25T13:23:43.000Z,4852
2023-05-25T13:25:11.831Z,5048
2023-05-25T13:26:28.269Z,4364
2023-05-25T13:27:44.218Z,4324
2023-05-25T13:28:48.000Z,4436
2023-05-25T13:30:16.605Z,4532
2023-05-25T13:31:20.000Z,4464
2023-05-25T13:32:35.000Z,4464
2023-05-25T13:33:52.000Z,4752
2023-05-25T13:35:20.396Z,5844
2023-05-25T13:36:36.850Z,5064
2023-05-25T13:37:40.000Z,4872
2023-05-25T13:39:09.226Z,4872
2023-05-25T13:40:25.431Z,4676
2023-05-25T13:41:41.364Z,4292
2023-05-25T13:42:57.812Z,4496
2023-05-25T13:44:13.751Z,4556
2023-05-25T13:45:29.945Z,5016
2023-05-25T13:46:46.139Z,4788
2023-05-25T13:48:02.332Z,4656
2023-05-25T13:49:17.800Z,4668
2023-05-25T13:50:33.983Z,4740
2023-05-25T13:51:37.000Z,4780
2023-05-25T13:53:06.124Z,4740
2023-05-25T13:54:10.000Z,4460
2023-05-25T13:55:07.000Z,4376
2023-05-25T13:55:26.000Z,4388
2023-05-25T13:56:23.000Z,4368
2023-05-25T13:56:42.000Z,4348
2023-05-25T13:57:58.000Z,4368
2023-05-25T13:59:14.000Z,4444
2023-05-25T14:00:43.540Z,4464
2023-05-25T14:04:19.000Z,4368
2023-05-25T14:05:47.078Z,4304
2023-05-25T14:06:51.000Z,4372
2023-05-25T14:08:07.000Z,4692
2023-05-25T14:09:23.000Z,4276
2023-05-25T14:10:39.000Z,3928
2023-05-25T14:11:54.000Z,4392
2023-05-25T14:13:23.260Z,4408
2023-05-25T14:14:27.000Z,4332
2023-05-25T14:15:43.000Z,4332
2023-05-25T14:16:59.000Z,4192
2023-05-25T14:18:28.034Z,4124
2023-05-25T14:19:32.000Z,4088
2023-05-25T14:20:48.000Z,4080
2023-05-25T14:22:16.866Z,4104
2023-05-25T14:23:32.810Z,4060
2023-05-25T14:24:36.000Z,4040
2023-05-25T14:25:53.000Z,4040
2023-05-25T14:27:09.000Z,4004
2023-05-25T14:28:24.000Z,3976
2023-05-25T14:29:52.794Z,4016
2023-05-25T14:31:08.988Z,4012
2023-05-25T14:32:25.181Z,4120
2023-05-25T14:33:29.000Z,4196
2023-05-25T14:34:57.569Z,4036
2023-05-25T14:36:01.000Z,4004
2023-05-25T14:37:30.199Z,3964
2023-05-25T14:38:34.000Z,3924
2023-05-25T14:39:50.000Z,3984
2023-05-25T14:41:06.000Z,4148
2023-05-25T14:42:34.730Z,4212
2023-05-25T14:43:38.000Z,4004
2023-05-25T14:44:53.000Z,3960
2023-05-25T14:46:10.000Z,4056
2023-05-25T14:47:38.520Z,4136
2023-05-25T14:48:23.000Z,3912
2023-05-25T14:48:54.964Z,4392
2023-05-25T14:49:58.000Z,4392
2023-05-25T14:51:27.103Z,4428
2023-05-25T14:52:31.000Z,4236
2023-05-25T14:53:59.493Z,3960
2023-05-25T14:56:19.000Z,3916
2023-05-25T14:57:48.077Z,3888
2023-05-25T14:58:52.000Z,4044
2023-05-25T15:00:20.720Z,4168
2023-05-25T15:01:35.925Z,4120
2023-05-25T15:02:39.000Z,4004
2023-05-25T15:03:55.000Z,3956
2023-05-25T15:05:24.264Z,4072
2023-05-25T15:06:28.000Z,3860
2023-05-25T15:07:44.000Z,3836
2023-05-25T15:09:12.850Z,3872
2023-05-25T15:10:29.044Z,3832
2023-05-25T15:11:45.240Z,3828
2023-05-25T15:12:49.000Z,3768
2023-05-25T15:14:05.000Z,3752
2023-05-25T15:15:21.000Z,3748
2023-05-25T15:16:50.022Z,3744
2023-05-25T15:17:53.000Z,3764
2023-05-25T15:19:21.674Z,3752
2023-05-25T15:20:25.000Z,3744
2023-05-25T15:21:41.000Z,3736
2023-05-25T15:22:57.000Z,3716
2023-05-25T15:24:14.000Z,3752
2023-05-25T15:25:30.000Z,3728
2023-05-25T15:26:46.000Z,3724
2023-05-25T15:28:02.000Z,3704
2023-05-25T15:29:30.993Z,3672
2023-05-25T15:30:47.188Z,3660
2023-05-25T15:32:03.384Z,3656
2023-05-25T15:33:19.579Z,3636
2023-05-25T15:34:22.000Z,3648
2023-05-25T15:35:38.000Z,3708
2023-05-25T15:37:07.182Z,3672
2023-05-25T15:38:11.000Z,3692
2023-05-25T15:39:27.000Z,3684
2023-05-25T15:40:56.013Z,3636
2023-05-25T15:41:59.000Z,3580
2023-05-25T15:43:15.000Z,3552
2023-05-25T15:44:44.616Z,3568
2023-05-25T15:46:00.797Z,3600
2023-05-25T15:47:04.000Z,3588
2023-05-25T15:48:20.000Z,3556
2023-05-25T15:49:36.000Z,3564
2023-05-25T15:51:04.349Z,3556
2023-05-25T15:52:08.000Z,3564
2023-05-25T15:53:24.000Z,3520
2023-05-25T15:54:40.000Z,3520
2023-05-25T15:55:56.000Z,3528
2023-05-25T15:57:13.000Z,3480
2023-05-25T15:58:29.000Z,3464
2023-05-25T15:59:57.960Z,3460
2023-05-25T16:01:01.000Z,3452
2023-05-25T16:02:30.109Z,3436
2023-05-25T16:03:34.000Z,3424
2023-05-25T16:04:50.000Z,3400
2023-05-25T16:06:06.000Z,3404
2023-05-25T16:07:33.907Z,3400
2023-05-25T16:08:37.000Z,3392
2023-05-25T16:10:06.298Z,3392
2023-05-25T16:11:22.493Z,3380
2023-05-25T16:12:07.000Z,3392
2023-05-25T16:12:26.000Z,3392
2023-05-25T16:13:42.000Z,3388
2023-05-25T16:14:58.000Z,3372
2023-05-25T16:16:27.524Z,3348
2023-05-25T16:17:31.000Z,3384
2023-05-25T16:20:03.000Z,3368
2023-05-25T16:21:19.000Z,3364
2023-05-25T16:22:36.000Z,3352
2023-05-25T16:23:51.000Z,3336
2023-05-25T16:25:19.908Z,3320
2023-05-25T16:26:23.000Z,3344
2023-05-25T16:27:39.000Z,3320
2023-05-25T16:28:56.000Z,3272
2023-05-25T16:30:12.000Z,3300
2023-05-25T16:31:28.000Z,3292
2023-05-25T16:32:44.000Z,3288
2023-05-25T16:34:13.279Z,3288
2023-05-25T16:35:17.000Z,3272
2023-05-25T16:36:45.422Z,3284
2023-05-25T16:37:49.000Z,3268
2023-05-25T16:39:05.000Z,3264
2023-05-25T16:40:33.025Z,3268
2023-05-25T16:41:37.000Z,3252
2023-05-25T16:42:53.000Z,3256
2023-05-25T16:44:21.856Z,3244
2023-05-25T16:45:38.061Z,3220
2023-05-25T16:46:41.000Z,3204
2023-05-25T16:48:10.198Z,3192
2023-05-25T16:49:14.000Z,3208
2023-05-25T16:50:30.000Z,3212
2023-05-25T16:51:46.000Z,3200
2023-05-25T16:53:02.000Z,3180
2023-05-25T16:54:31.175Z,3168
2023-05-25T16:55:35.000Z,3184
2023-05-25T16:57:02.583Z,3184
2023-05-25T16:58:18.779Z,3148
2023-05-25T16:59:22.000Z,3136
2023-05-25T17:00:38.000Z,3160
2023-05-25T17:01:55.000Z,3168
2023-05-25T17:03:23.561Z,3164
2023-05-25T17:04:39.757Z,3188
2023-05-25T17:05:43.000Z,3204
2023-05-25T17:07:12.393Z,3576
2023-05-25T17:08:16.000Z,5596
2023-05-25T17:09:44.539Z,7276
2023-05-25T17:11:00.735Z,7420